aviador You're here:

CYIN Decoded Metar

in
Report Time2018-04-24 18:00:00
UTC Time2018-04-24 18:33:52
Flight Rules vfr VFR
Wind100° at 07 kt
W.Decomp.*RWY 11: 6.9 kt HW 1.2 kt LCW
W.Rank100° ranks 12
Current wind is above 100° avg. (5.8)
Visibility9999 m
Phenomena:N/A
Clouds:N/A
Expected CloudBase > 5,600 ft AGL from Temp-Dew spread
CeilingNone
Temp10°C
Dew Point-4°C (37% RH)
AAT5.0°C
QNH1024 hPa
Raw Report
METAR CYIN 241800Z AUTO 10007KT 9SM CLR 10/M04 A3023 RMK SLP249=

Extra information for CYIN:More info

Social comments